createdAt,value
2023-04-05T00:00:25.941Z,72.63
2023-04-05T00:02:29.839Z,71.84
2023-04-05T00:04:34.753Z,72.52
2023-04-05T00:06:37.803Z,73.31
2023-04-05T00:08:39.271Z,73.04
2023-04-05T00:10:41.089Z,73.09
2023-04-05T00:12:42.765Z,72.76
2023-04-05T00:14:44.339Z,72.48
2023-04-05T00:16:45.913Z,72.47
2023-04-05T00:18:51.673Z,72.47
2023-04-05T00:20:53.621Z,72.49
2023-04-05T00:22:55.131Z,72.46
2023-04-05T00:24:56.624Z,72.65
2023-04-05T00:26:58.435Z,72.94
2023-04-05T00:29:00.039Z,72.74
2023-04-05T00:31:01.571Z,72.11
2023-04-05T00:33:03.153Z,71.73
2023-04-05T00:35:04.959Z,71.54
2023-04-05T00:37:06.483Z,71.17
2023-04-05T00:39:07.973Z,70.97
2023-04-05T00:41:10.817Z,70.85
2023-04-05T00:43:12.299Z,70.26
2023-04-05T00:45:14.093Z,70.69
2023-04-05T00:47:15.740Z,70.93
2023-04-05T00:49:17.210Z,70.93
2023-04-05T00:51:20.272Z,70.87
2023-04-05T00:53:21.841Z,70.64
2023-04-05T00:55:23.295Z,70.61
2023-04-05T00:57:26.427Z,70.12
2023-04-05T00:59:31.338Z,70.26
2023-04-05T01:01:32.975Z,70.41
2023-04-05T01:03:34.939Z,70.29
2023-04-05T01:05:37.108Z,70.49
2023-04-05T01:07:40.923Z,70.13
2023-04-05T01:09:45.610Z,69.93
2023-04-05T01:11:47.107Z,70.55
2023-04-05T01:13:49.507Z,70.64
2023-04-05T01:15:51.167Z,70.65
2023-04-05T01:17:54.441Z,70.26
2023-04-05T01:20:00.569Z,70.25
2023-04-05T01:22:13.823Z,69.67
2023-04-05T01:24:18.481Z,69.11
2023-04-05T01:26:35.247Z,69.59
2023-04-05T01:28:36.743Z,69.53
2023-04-05T01:30:39.834Z,69.66
2023-04-05T01:32:41.649Z,70.08
2023-04-05T01:34:48.624Z,70.25
2023-04-05T01:36:50.832Z,69.61
2023-04-05T01:38:52.340Z,69.63
2023-04-05T01:40:53.998Z,68.74
2023-04-05T01:42:55.677Z,68.50
2023-04-05T01:44:57.400Z,68.81
2023-04-05T01:46:58.929Z,68.83
2023-04-05T01:49:00.438Z,69.14
2023-04-05T01:51:01.964Z,69.72
2023-04-05T01:53:03.479Z,70.57
2023-04-05T01:55:05.107Z,70.71
2023-04-05T01:57:06.583Z,70.88
2023-04-05T01:59:08.138Z,70.05
2023-04-05T02:01:09.724Z,70.02
2023-04-05T02:03:11.266Z,70.09
2023-04-05T02:05:12.817Z,69.80
2023-04-05T02:07:14.352Z,69.60
2023-04-05T02:09:16.191Z,68.91
2023-04-05T02:11:17.773Z,69.11
2023-04-05T02:13:19.225Z,69.25
2023-04-05T02:15:20.766Z,69.15
2023-04-05T02:17:22.284Z,68.96
2023-04-05T02:19:23.833Z,68.82
2023-04-05T02:21:26.223Z,69.54
2023-04-05T02:23:28.129Z,69.04
2023-04-05T02:25:29.638Z,69.83
2023-04-05T02:27:32.157Z,68.84
2023-04-05T02:29:34.933Z,68.89
2023-04-05T02:31:36.457Z,69.17
2023-04-05T02:33:38.455Z,68.55
2023-04-05T02:35:40.160Z,69.01
2023-04-05T02:37:41.724Z,68.48
2023-04-05T02:39:43.208Z,68.37
2023-04-05T02:41:44.711Z,68.87
2023-04-05T02:43:46.552Z,68.78
2023-04-05T02:45:48.176Z,68.44
2023-04-05T02:47:49.891Z,68.54
2023-04-05T02:49:51.425Z,69.28
2023-04-05T02:51:52.964Z,69.66
2023-04-05T02:53:54.461Z,69.65
2023-04-05T02:55:56.982Z,69.49
2023-04-05T02:58:04.510Z,69.89
2023-04-05T03:00:08.379Z,69.82
2023-04-05T03:02:10.378Z,69.00
2023-04-05T03:04:14.605Z,68.52
2023-04-05T03:06:16.033Z,68.87
2023-04-05T03:08:23.702Z,69.22
2023-04-05T03:10:29.065Z,69.22
2023-04-05T03:12:30.797Z,68.96
2023-04-05T03:14:34.534Z,69.20
2023-04-05T03:16:37.312Z,68.86
2023-04-05T03:18:40.338Z,69.27
2023-04-05T03:20:41.810Z,69.30
2023-04-05T03:22:43.265Z,69.26
2023-04-05T03:24:44.823Z,69.45
2023-04-05T03:26:46.667Z,70.14
2023-04-05T03:28:48.463Z,70.05
2023-04-05T03:30:50.444Z,69.36
2023-04-05T03:32:51.968Z,69.54
2023-04-05T03:34:53.487Z,69.91
2023-04-05T03:36:55.424Z,69.88
2023-04-05T03:38:57.309Z,69.87
2023-04-05T03:40:58.825Z,69.63
2023-04-05T03:43:00.439Z,69.83
2023-04-05T03:45:01.906Z,69.82
2023-04-05T03:47:03.464Z,69.62
2023-04-05T03:49:05.190Z,69.53
2023-04-05T03:51:07.006Z,70.13
2023-04-05T03:53:08.571Z,70.58
2023-04-05T03:55:10.211Z,70.73
2023-04-05T03:57:11.680Z,70.87
2023-04-05T03:59:13.297Z,71.62
2023-04-05T04:01:15.565Z,71.29
2023-04-05T04:03:17.088Z,71.50
2023-04-05T04:05:18.835Z,71.64
2023-04-05T04:07:20.620Z,71.87
2023-04-05T04:09:23.033Z,72.54
2023-04-05T04:11:24.635Z,73.48
2023-04-05T04:13:26.331Z,73.41
2023-04-05T04:15:27.794Z,73.29
2023-04-05T04:17:33.379Z,72.96
2023-04-05T04:19:34.844Z,73.84
2023-04-05T04:21:39.719Z,75.21
2023-04-05T04:23:46.100Z,74.98
2023-04-05T04:25:50.610Z,75.64
2023-04-05T04:27:52.847Z,75.07
2023-04-05T04:30:01.569Z,74.16
2023-04-05T04:32:07.086Z,73.95
2023-04-05T04:34:08.591Z,73.37
2023-04-05T04:36:13.845Z,73.47
2023-04-05T04:38:19.008Z,73.18
2023-04-05T04:40:21.466Z,72.81
2023-04-05T04:42:23.925Z,72.78
2023-04-05T04:44:31.263Z,72.30
2023-04-05T04:46:34.946Z,71.77
2023-04-05T04:48:38.065Z,71.37
2023-04-05T04:50:39.571Z,71.10
2023-04-05T04:52:41.068Z,71.06
2023-04-05T04:54:43.820Z,71.21
2023-04-05T04:56:45.372Z,70.89
2023-04-05T04:58:46.951Z,70.61
2023-04-05T05:00:48.517Z,71.42
2023-04-05T05:02:50.918Z,72.23
2023-04-05T05:04:52.516Z,71.66
2023-04-05T05:06:54.172Z,71.51
2023-04-05T05:08:56.431Z,71.11
2023-04-05T05:10:57.933Z,70.73
2023-04-05T05:12:59.467Z,70.97
2023-04-05T05:15:00.933Z,71.19
2023-04-05T05:17:02.592Z,71.36
2023-04-05T05:19:04.105Z,71.66
2023-04-05T05:21:05.639Z,71.17
2023-04-05T05:23:07.239Z,71.35
2023-04-05T05:25:10.056Z,70.97
2023-04-05T05:27:11.519Z,70.79
2023-04-05T05:29:12.996Z,70.08
2023-04-05T05:31:14.615Z,69.73
2023-04-05T05:33:16.153Z,69.70
2023-04-05T05:35:17.801Z,69.07
2023-04-05T05:37:19.475Z,69.10
2023-04-05T05:39:21.276Z,68.93
2023-04-05T05:41:22.836Z,68.76
2023-04-05T05:43:24.338Z,68.60
2023-04-05T05:45:25.894Z,68.56
2023-04-05T05:47:27.371Z,68.11
2023-04-05T05:49:28.978Z,67.53
2023-04-05T05:51:32.394Z,67.39
2023-04-05T05:53:33.855Z,67.22
2023-04-05T05:55:35.498Z,67.47
2023-04-05T05:57:38.772Z,67.34
2023-04-05T05:59:41.500Z,66.75
2023-04-05T06:01:46.521Z,67.17
2023-04-05T06:03:48.087Z,65.95
2023-04-05T06:05:53.209Z,66.02
2023-04-05T06:07:54.824Z,65.88
2023-04-05T06:09:56.712Z,65.40
2023-04-05T06:11:58.564Z,65.72
2023-04-05T06:14:00.099Z,65.97
2023-04-05T06:16:01.864Z,66.12
2023-04-05T06:18:03.585Z,65.33
2023-04-05T06:20:05.472Z,64.64
2023-04-05T06:22:07.007Z,65.52
2023-04-05T06:24:08.561Z,64.91
2023-04-05T06:26:15.632Z,64.52
2023-04-05T06:28:17.209Z,64.80
2023-04-05T06:30:18.925Z,63.96
2023-04-05T06:32:20.784Z,64.74
2023-04-05T06:34:22.293Z,64.48
2023-04-05T06:36:25.033Z,64.87
2023-04-05T06:38:28.544Z,64.70
2023-04-05T06:40:30.072Z,63.96
2023-04-05T06:42:31.535Z,63.54
2023-04-05T06:44:33.117Z,62.71
2023-04-05T06:46:34.648Z,62.71
2023-04-05T06:48:36.585Z,62.82
2023-04-05T06:50:38.165Z,63.33
2023-04-05T06:52:39.742Z,62.82
2023-04-05T06:54:41.267Z,62.81
2023-04-05T06:56:42.814Z,62.76
2023-04-05T06:58:44.300Z,62.58
2023-04-05T07:00:46.439Z,62.84
2023-04-05T07:02:48.211Z,62.61
2023-04-05T07:04:49.790Z,62.74
2023-04-05T07:06:51.304Z,61.80
2023-04-05T07:08:53.044Z,61.93
2023-04-05T07:10:54.685Z,61.41
2023-04-05T07:12:56.393Z,60.70
2023-04-05T07:14:59.159Z,60.25
2023-04-05T07:17:00.820Z,60.74
2023-04-05T07:19:02.395Z,61.46
2023-04-05T07:21:04.174Z,61.98
2023-04-05T07:23:06.138Z,61.27
2023-04-05T07:25:09.632Z,61.33
2023-04-05T07:27:11.165Z,61.09
2023-04-05T07:29:13.144Z,60.48
2023-04-05T07:31:14.708Z,59.94
2023-04-05T07:33:16.536Z,60.06
2023-04-05T07:35:18.174Z,59.94
2023-04-05T07:37:19.646Z,60.13
2023-04-05T07:39:21.414Z,59.93
2023-04-05T07:41:23.758Z,59.57
2023-04-05T07:43:25.957Z,59.38
2023-04-05T07:45:27.595Z,60.09
2023-04-05T07:47:29.248Z,60.76
2023-04-05T07:49:30.843Z,61.20
2023-04-05T07:51:36.198Z,61.03
2023-04-05T07:53:37.831Z,61.30
2023-04-05T07:55:39.825Z,61.50
2023-04-05T07:57:41.808Z,60.89
2023-04-05T07:59:43.494Z,60.13
2023-04-05T08:01:45.408Z,60.14
2023-04-05T08:03:47.327Z,60.23
2023-04-05T08:05:48.894Z,60.59
2023-04-05T08:07:50.411Z,60.26
2023-04-05T08:09:51.958Z,60.12
2023-04-05T08:11:53.428Z,60.23
2023-04-05T08:13:54.948Z,60.61
2023-04-05T08:15:57.024Z,61.10
2023-04-05T08:17:58.780Z,61.55
2023-04-05T08:20:00.531Z,61.14
2023-04-05T08:22:02.028Z,61.53
2023-04-05T08:24:03.664Z,60.88
2023-04-05T08:26:05.700Z,61.09
2023-04-05T08:28:07.817Z,61.02
2023-04-05T08:30:09.470Z,60.86
2023-04-05T08:32:11.363Z,60.76
2023-04-05T08:34:12.979Z,60.71
2023-04-05T08:36:14.511Z,60.82
2023-04-05T08:38:16.173Z,61.04
2023-04-05T08:40:17.762Z,60.90
2023-04-05T08:42:24.228Z,61.23
2023-04-05T08:44:25.978Z,60.46
2023-04-05T08:46:27.602Z,60.66
2023-04-05T08:48:31.294Z,61.27
2023-04-05T08:50:32.764Z,61.61
2023-04-05T08:52:34.712Z,61.73
2023-04-05T08:54:36.188Z,62.27
2023-04-05T08:56:37.691Z,61.42
2023-04-05T08:58:39.224Z,62.83
2023-04-05T09:00:41.437Z,61.72
2023-04-05T09:02:43.766Z,62.48
2023-04-05T09:04:45.549Z,62.28
2023-04-05T09:06:47.598Z,63.21
2023-04-05T09:08:49.078Z,62.18
2023-04-05T09:10:51.721Z,62.52
2023-04-05T09:12:53.362Z,61.92
2023-04-05T09:14:54.934Z,62.30
2023-04-05T09:16:56.480Z,64.46
2023-04-05T09:18:57.958Z,65.88
2023-04-05T09:21:04.145Z,67.09
2023-04-05T09:23:05.774Z,69.21
2023-04-05T09:25:07.404Z,69.39
2023-04-05T09:27:12.625Z,68.86
2023-04-05T09:29:40.728Z,68.85
2023-04-05T09:31:42.281Z,69.03
2023-04-05T09:33:43.980Z,68.07
2023-04-05T09:35:45.547Z,67.73
2023-04-05T09:37:53.635Z,68.61
2023-04-05T09:40:02.578Z,68.93
2023-04-05T09:42:05.103Z,67.63
2023-04-05T09:44:06.561Z,68.67
2023-04-05T09:46:16.503Z,68.92
2023-04-05T09:48:18.136Z,69.16
2023-04-05T09:50:20.247Z,70.11
2023-04-05T09:52:23.024Z,68.84
2023-04-05T09:54:24.530Z,68.30
2023-04-05T09:56:26.556Z,67.52
2023-04-05T09:58:28.066Z,66.62
2023-04-05T10:00:30.307Z,65.96
2023-04-05T10:02:39.450Z,65.87
2023-04-05T10:04:45.504Z,66.48
2023-04-05T10:06:47.417Z,65.83
2023-04-05T10:08:52.086Z,65.45
2023-04-05T10:10:54.836Z,64.16
2023-04-05T10:13:04.192Z,63.42
2023-04-05T10:15:06.741Z,64.79
2023-04-05T10:17:12.808Z,65.57
2023-04-05T10:19:16.884Z,64.57
2023-04-05T10:21:22.717Z,65.57
2023-04-05T10:23:24.186Z,66.01
2023-04-05T10:25:34.814Z,65.94
2023-04-05T10:27:40.264Z,65.37
2023-04-05T10:29:48.343Z,65.85
2023-04-05T10:31:51.708Z,65.74
2023-04-05T10:34:01.151Z,65.41
2023-04-05T10:36:08.508Z,64.99
2023-04-05T10:38:10.252Z,65.39
2023-04-05T10:40:11.911Z,64.91
2023-04-05T10:42:27.124Z,63.46
2023-04-05T10:44:30.596Z,64.66
2023-04-05T10:46:32.261Z,64.30
2023-04-05T10:48:36.841Z,63.20
2023-04-05T10:50:38.380Z,63.42
2023-04-05T10:52:40.758Z,63.76
2023-04-05T10:54:42.384Z,63.90
2023-04-05T10:56:44.080Z,64.56
2023-04-05T10:58:45.757Z,64.65
2023-04-05T11:00:47.860Z,63.54
2023-04-05T11:02:54.033Z,61.40
2023-04-05T11:04:56.885Z,60.81
2023-04-05T11:07:17.880Z,62.85
2023-04-05T11:09:22.985Z,62.24
2023-04-05T11:11:25.202Z,62.81
2023-04-05T11:13:48.294Z,62.97
2023-04-05T11:16:06.121Z,62.52
2023-04-05T11:18:11.870Z,61.15
2023-04-05T11:20:13.548Z,61.24
2023-04-05T11:22:25.862Z,61.57
2023-04-05T11:24:27.370Z,61.65
2023-04-05T11:26:32.311Z,62.86
2023-04-05T11:28:39.661Z,63.95
2023-04-05T11:30:56.942Z,63.59
2023-04-05T11:32:58.940Z,63.83
2023-04-05T11:35:01.628Z,64.29
2023-04-05T11:37:03.107Z,64.39
2023-04-05T11:39:21.170Z,63.49
2023-04-05T11:41:22.759Z,63.82
2023-04-05T11:43:24.216Z,63.86
2023-04-05T11:45:30.009Z,63.47
2023-04-05T11:47:33.372Z,63.16
2023-04-05T11:49:35.488Z,62.98
2023-04-05T11:51:36.965Z,62.13
2023-04-05T11:53:38.776Z,61.51
2023-04-05T11:55:41.058Z,61.68
2023-04-05T11:57:43.287Z,60.52
2023-04-05T11:59:44.991Z,59.86
2023-04-05T12:01:46.475Z,60.40
2023-04-05T12:03:50.971Z,61.60
2023-04-05T12:05:53.114Z,61.50
2023-04-05T12:07:54.667Z,61.69
2023-04-05T12:09:59.020Z,63.10
2023-04-05T12:12:00.584Z,63.67
2023-04-05T12:14:04.975Z,62.71
2023-04-05T12:16:07.336Z,63.36
2023-04-05T12:18:15.668Z,63.27
2023-04-05T12:20:19.430Z,63.65
2023-04-05T12:22:20.930Z,63.91
2023-04-05T12:24:22.402Z,65.35
2023-04-05T12:26:23.936Z,64.02
2023-04-05T12:28:25.660Z,63.07
2023-04-05T12:30:27.897Z,63.61
2023-04-05T12:32:35.582Z,65.28
2023-04-05T12:34:37.221Z,65.34
2023-04-05T12:36:41.652Z,64.23
2023-04-05T12:38:43.177Z,64.54
2023-04-05T12:40:45.690Z,64.43
2023-04-05T12:42:47.205Z,64.97
2023-04-05T12:45:02.070Z,64.17
2023-04-05T12:47:05.332Z,64.53
2023-04-05T12:49:07.050Z,64.09
2023-04-05T12:51:16.891Z,63.34
2023-04-05T12:53:28.657Z,65.54
2023-04-05T12:55:30.271Z,66.25
2023-04-05T12:57:32.020Z,66.68
2023-04-05T12:59:33.511Z,66.10
2023-04-05T13:01:35.033Z,65.10
2023-04-05T13:03:36.642Z,65.15
2023-04-05T13:05:39.089Z,64.85
2023-04-05T13:07:41.023Z,63.38
2023-04-05T13:09:42.483Z,63.39
2023-04-05T13:11:43.992Z,63.32
2023-04-05T13:13:45.478Z,64.18
2023-04-05T13:15:47.772Z,63.21
2023-04-05T13:17:50.806Z,62.24
2023-04-05T13:19:52.484Z,62.63
2023-04-05T13:21:54.022Z,62.02
2023-04-05T13:23:55.464Z,62.01
2023-04-05T13:25:56.965Z,62.34
2023-04-05T13:27:58.881Z,61.81
2023-04-05T13:30:00.390Z,61.97
2023-04-05T13:32:01.973Z,61.39
2023-04-05T13:34:03.718Z,60.11
2023-04-05T13:36:05.550Z,61.53
2023-04-05T13:38:07.151Z,60.68
2023-04-05T13:40:08.945Z,59.61
2023-04-05T13:42:10.783Z,59.75
2023-04-05T13:44:12.305Z,61.72
2023-04-05T13:46:13.806Z,62.41
2023-04-05T13:48:15.493Z,62.45
2023-04-05T13:50:17.209Z,63.10
2023-04-05T13:52:18.840Z,62.33
2023-04-05T13:54:20.524Z,62.78
2023-04-05T13:56:22.203Z,62.90
2023-04-05T13:58:23.765Z,61.99
2023-04-05T14:00:25.630Z,61.72
2023-04-05T14:02:27.404Z,62.42
2023-04-05T14:04:29.043Z,62.91
2023-04-05T14:06:30.578Z,63.24
2023-04-05T14:08:32.330Z,61.83
2023-04-05T14:10:33.793Z,62.00
2023-04-05T14:12:35.431Z,62.69
2023-04-05T14:14:37.202Z,61.93
2023-04-05T14:16:38.849Z,63.44
2023-04-05T14:18:40.520Z,63.21
2023-04-05T14:20:42.351Z,63.18
2023-04-05T14:22:44.069Z,62.34
2023-04-05T14:24:45.790Z,62.68
2023-04-05T14:26:49.911Z,64.92
2023-04-05T14:28:51.695Z,65.17
2023-04-05T14:30:53.418Z,65.55
2023-04-05T14:32:54.946Z,64.71
2023-04-05T14:34:56.578Z,63.92
2023-04-05T14:37:00.318Z,64.62
2023-04-05T14:39:01.783Z,64.08
2023-04-05T14:41:04.358Z,64.77
2023-04-05T14:43:06.301Z,64.44
2023-04-05T14:45:08.194Z,64.81
2023-04-05T14:47:09.882Z,64.22
2023-04-05T14:49:11.432Z,63.88
2023-04-05T14:51:13.250Z,62.64
2023-04-05T14:53:14.836Z,62.33
2023-04-05T14:55:16.709Z,62.25
2023-04-05T14:57:18.273Z,61.86
2023-04-05T14:59:19.915Z,61.78
2023-04-05T15:01:21.445Z,62.80
2023-04-05T15:03:23.048Z,63.75
2023-04-05T15:05:24.662Z,64.31
2023-04-05T15:07:26.616Z,64.15
2023-04-05T15:09:28.238Z,65.01
2023-04-05T15:11:29.828Z,65.72
2023-04-05T15:13:31.614Z,65.70
2023-04-05T15:15:33.306Z,65.34
2023-04-05T15:17:35.009Z,65.27
2023-04-05T15:19:36.541Z,65.98
2023-04-05T15:21:41.445Z,66.28
2023-04-05T15:23:42.985Z,65.88
2023-04-05T15:25:44.645Z,66.25
2023-04-05T15:27:46.376Z,66.44
2023-04-05T15:29:47.999Z,67.08
2023-04-05T15:31:49.544Z,67.92
2023-04-05T15:33:51.699Z,68.34
2023-04-05T15:35:53.231Z,68.69
2023-04-05T15:37:54.803Z,68.97
2023-04-05T15:39:56.369Z,68.92
2023-04-05T15:41:58.016Z,68.31
2023-04-05T15:43:59.714Z,67.95
2023-04-05T15:46:01.455Z,68.35
2023-04-05T15:48:03.062Z,68.66
2023-04-05T15:50:05.036Z,68.13
2023-04-05T15:52:06.697Z,68.11
2023-04-05T15:54:08.231Z,68.35
2023-04-05T15:56:09.897Z,67.91
2023-04-05T15:58:11.484Z,68.26
2023-04-05T16:00:13.305Z,68.06
2023-04-05T16:02:14.856Z,68.35
2023-04-05T16:04:16.493Z,68.96
2023-04-05T16:06:18.066Z,68.66
2023-04-05T16:08:19.647Z,69.45
2023-04-05T16:10:21.313Z,69.84
2023-04-05T16:12:22.873Z,70.67
2023-04-05T16:14:24.410Z,70.09
2023-04-05T16:16:38.182Z,69.65
2023-04-05T16:18:47.325Z,69.54
2023-04-05T16:20:52.205Z,69.60
2023-04-05T16:22:53.728Z,69.00
2023-04-05T16:24:55.475Z,69.28
2023-04-05T16:26:56.992Z,69.24
2023-04-05T16:28:58.997Z,70.23
2023-04-05T16:31:01.102Z,70.07
2023-04-05T16:33:02.713Z,69.74
2023-04-05T16:35:04.431Z,69.04
2023-04-05T16:37:06.130Z,69.55
2023-04-05T16:39:07.873Z,69.75
2023-04-05T16:41:09.403Z,70.06
2023-04-05T16:43:11.145Z,70.35
2023-04-05T16:45:12.743Z,70.48
2023-04-05T16:47:14.228Z,70.62
2023-04-05T16:49:15.917Z,70.34
2023-04-05T16:51:17.451Z,70.27
2023-04-05T16:53:18.988Z,69.73
2023-04-05T16:55:20.471Z,69.97
2023-04-05T16:57:22.037Z,70.17
2023-04-05T16:59:23.697Z,70.76
2023-04-05T17:01:25.392Z,70.91
2023-04-05T17:03:27.438Z,70.68
2023-04-05T17:05:29.487Z,70.20
2023-04-05T17:07:31.172Z,69.60
2023-04-05T17:09:33.282Z,70.07
2023-04-05T17:11:34.810Z,68.79
2023-04-05T17:13:36.379Z,67.80
2023-04-05T17:15:38.462Z,67.03
2023-04-05T17:17:40.386Z,66.51
2023-04-05T17:19:42.327Z,65.72
2023-04-05T17:21:48.665Z,65.35
2023-04-05T17:23:50.241Z,65.74
2023-04-05T17:25:51.816Z,65.27
2023-04-05T17:27:53.335Z,65.54
2023-04-05T17:29:54.897Z,65.06
2023-04-05T17:31:57.003Z,64.96
2023-04-05T17:33:58.481Z,64.88
2023-04-05T17:36:00.124Z,64.93
2023-04-05T17:38:03.434Z,64.78
2023-04-05T17:40:05.224Z,64.52
2023-04-05T17:42:06.798Z,64.83
2023-04-05T17:44:08.373Z,64.92
2023-04-05T17:46:13.781Z,64.99
2023-04-05T17:48:15.498Z,64.77
2023-04-05T17:50:17.108Z,64.83
2023-04-05T17:52:18.573Z,64.83
2023-04-05T17:54:20.116Z,64.52
2023-04-05T17:56:22.314Z,64.47
2023-04-05T17:58:23.956Z,64.53
2023-04-05T18:00:25.625Z,65.10
2023-04-05T18:02:28.116Z,64.30
2023-04-05T18:04:29.798Z,65.08
2023-04-05T18:06:31.524Z,64.62
2023-04-05T18:08:33.150Z,64.87
2023-04-05T18:10:34.629Z,64.52
2023-04-05T18:12:36.698Z,64.53
2023-04-05T18:14:38.214Z,64.11
2023-04-05T18:16:39.746Z,64.14
2023-04-05T18:18:41.218Z,64.25
2023-04-05T18:20:42.844Z,64.20
2023-04-05T18:22:44.485Z,64.15
2023-04-05T18:24:46.384Z,64.42
2023-04-05T18:26:48.270Z,64.46
2023-04-05T18:28:50.545Z,64.43
2023-04-05T18:30:52.978Z,64.73
2023-04-05T18:32:54.703Z,65.15
2023-04-05T18:34:56.383Z,64.60
2023-04-05T18:36:57.985Z,64.35
2023-04-05T18:39:00.642Z,64.35
2023-04-05T18:41:07.172Z,64.78
2023-04-05T18:43:08.927Z,63.71
2023-04-05T18:45:10.744Z,64.33
2023-04-05T18:47:12.237Z,64.16
2023-04-05T18:49:15.879Z,64.68
2023-04-05T18:51:17.474Z,64.35
2023-04-05T18:53:18.966Z,64.58
2023-04-05T18:55:20.556Z,64.37
2023-04-05T18:57:22.179Z,64.33
2023-04-05T18:59:23.795Z,64.30
2023-04-05T19:01:25.470Z,64.68
2023-04-05T19:03:27.285Z,64.64
2023-04-05T19:05:28.978Z,65.53
2023-04-05T19:07:30.599Z,65.29
2023-04-05T19:09:32.584Z,65.35
2023-04-05T19:11:34.139Z,65.17
2023-04-05T19:13:35.693Z,64.92
2023-04-05T19:15:37.923Z,64.59
2023-04-05T19:17:39.572Z,63.84
2023-04-05T19:19:42.454Z,63.77
2023-04-05T19:21:44.054Z,63.16
2023-04-05T19:23:45.712Z,62.57
2023-04-05T19:25:47.255Z,62.29
2023-04-05T19:27:48.974Z,62.01
2023-04-05T19:29:50.519Z,62.06
2023-04-05T19:31:52.194Z,61.47
2023-04-05T19:33:53.777Z,61.90
2023-04-05T19:35:55.504Z,62.65
2023-04-05T19:37:57.608Z,63.32
2023-04-05T19:39:59.094Z,63.71
2023-04-05T19:42:00.889Z,64.25
2023-04-05T19:44:02.607Z,64.69
2023-04-05T19:46:04.210Z,64.50
2023-04-05T19:48:07.951Z,65.53
2023-04-05T19:50:11.578Z,65.42
2023-04-05T19:52:13.228Z,64.98
2023-04-05T19:54:15.061Z,65.12
2023-04-05T19:56:28.689Z,65.97
2023-04-05T19:58:30.608Z,67.91
2023-04-05T20:00:43.881Z,68.70
2023-04-05T20:02:45.503Z,69.17
2023-04-05T20:04:48.663Z,68.68
2023-04-05T20:06:54.043Z,68.58
2023-04-05T20:08:59.736Z,68.74
2023-04-05T20:11:01.315Z,70.40
2023-04-05T20:13:02.879Z,70.84
2023-04-05T20:15:04.855Z,71.91
2023-04-05T20:17:06.548Z,72.60
2023-04-05T20:19:08.888Z,72.55
2023-04-05T20:21:11.340Z,72.26
2023-04-05T20:23:14.130Z,72.82
2023-04-05T20:25:34.341Z,71.88
2023-04-05T20:27:35.844Z,71.98
2023-04-05T20:29:37.356Z,71.69
2023-04-05T20:31:40.154Z,71.61
2023-04-05T20:33:44.915Z,70.16
2023-04-05T20:35:46.454Z,70.35
2023-04-05T20:37:49.771Z,69.29
2023-04-05T20:39:51.411Z,70.10
2023-04-05T20:41:52.962Z,70.79
2023-04-05T20:43:56.284Z,70.96
2023-04-05T20:45:58.265Z,70.86
2023-04-05T20:48:01.021Z,70.50
2023-04-05T20:50:02.519Z,71.06
2023-04-05T20:52:08.875Z,70.56
2023-04-05T20:54:10.777Z,70.65
2023-04-05T20:56:12.596Z,70.64
2023-04-05T20:58:14.454Z,70.26
2023-04-05T21:00:16.550Z,69.02
2023-04-05T21:02:18.052Z,68.59
2023-04-05T21:04:19.563Z,68.21
2023-04-05T21:06:21.156Z,66.87
2023-04-05T21:08:22.841Z,66.46
2023-04-05T21:10:24.479Z,66.16
2023-04-05T21:12:26.037Z,65.29
2023-04-05T21:14:36.726Z,64.37
2023-04-05T21:16:38.225Z,63.99
2023-04-05T21:18:40.040Z,63.45
2023-04-05T21:20:41.628Z,63.12
2023-04-05T21:22:45.135Z,62.87
2023-04-05T21:24:46.562Z,62.02
2023-04-05T21:26:56.206Z,61.69
2023-04-05T21:28:57.735Z,61.40
2023-04-05T21:30:59.214Z,61.10
2023-04-05T21:33:00.738Z,60.97
2023-04-05T21:35:02.383Z,61.68
2023-04-05T21:37:03.912Z,62.33
2023-04-05T21:39:05.516Z,61.98
2023-04-05T21:41:07.063Z,62.13
2023-04-05T21:43:08.619Z,62.19
2023-04-05T21:45:10.447Z,62.23
2023-04-05T21:47:12.644Z,61.99
2023-04-05T21:49:14.168Z,61.54
2023-04-05T21:51:15.714Z,61.63
2023-04-05T21:53:17.248Z,61.26
2023-04-05T21:55:18.906Z,60.92
2023-04-05T21:57:20.502Z,62.05
2023-04-05T21:59:22.178Z,61.67
2023-04-05T22:01:23.803Z,61.52
2023-04-05T22:03:25.560Z,60.96
2023-04-05T22:05:36.982Z,60.57
2023-04-05T22:07:39.937Z,60.06
2023-04-05T22:09:42.039Z,60.17
2023-04-05T22:11:43.676Z,60.13
2023-04-05T22:13:45.789Z,59.66
2023-04-05T22:15:47.317Z,59.94
2023-04-05T22:17:48.856Z,60.31
2023-04-05T22:19:50.533Z,59.98
2023-04-05T22:21:55.196Z,59.88
2023-04-05T22:23:56.724Z,59.50
2023-04-05T22:25:58.294Z,59.47
2023-04-05T22:28:00.805Z,59.58
2023-04-05T22:30:03.471Z,59.92
2023-04-05T22:32:05.251Z,59.78
2023-04-05T22:34:06.820Z,60.19
2023-04-05T22:36:09.981Z,60.28
2023-04-05T22:38:11.651Z,60.31
2023-04-05T22:40:13.428Z,60.25
2023-04-05T22:42:14.938Z,60.06
2023-04-05T22:44:16.483Z,60.34
2023-04-05T22:46:18.612Z,60.50
2023-04-05T22:48:20.578Z,60.01
2023-04-05T22:50:22.326Z,59.95
2023-04-05T22:52:23.819Z,59.76
2023-04-05T22:54:25.476Z,59.51
2023-04-05T22:56:26.979Z,59.54
2023-04-05T22:58:32.787Z,59.91
2023-04-05T23:00:34.534Z,59.77
2023-04-05T23:02:36.087Z,59.43
2023-04-05T23:04:37.619Z,59.43
2023-04-05T23:06:39.180Z,59.42
2023-04-05T23:08:40.809Z,59.78
2023-04-05T23:10:42.846Z,59.76
2023-04-05T23:12:44.775Z,59.42
2023-04-05T23:14:46.410Z,59.52
2023-04-05T23:16:47.839Z,59.45
2023-04-05T23:18:49.343Z,59.12
2023-04-05T23:20:51.286Z,59.18
2023-04-05T23:22:52.765Z,59.87
2023-04-05T23:24:54.313Z,59.75
2023-04-05T23:26:55.954Z,60.00
2023-04-05T23:28:57.392Z,59.52
2023-04-05T23:30:58.934Z,59.35
2023-04-05T23:33:00.678Z,59.44
2023-04-05T23:35:02.293Z,59.38
2023-04-05T23:37:03.806Z,59.66
2023-04-05T23:39:05.396Z,59.86
2023-04-05T23:41:06.995Z,59.48
2023-04-05T23:43:08.488Z,59.43
2023-04-05T23:45:10.660Z,59.32
2023-04-05T23:47:12.235Z,59.34
2023-04-05T23:49:13.761Z,59.46
2023-04-05T23:51:15.581Z,59.76
2023-04-05T23:53:17.171Z,59.79
2023-04-05T23:55:18.727Z,59.92
2023-04-05T23:57:20.522Z,59.58
2023-04-05T23:59:22.131Z,59.72
